Time;durP1;ratioP1;P1;durP2;ratioP2;P2;SDS_P1;SDS_P2;PMS_P1;PMS_P2;Temp;Humidity;BMP_temperature;BMP_pressure;BME280_temperature;BME280_humidity;BME280_pressure;Samples;Min_cycle;Max_cycle;Signal;HPM_P1;HPM_P2
2022/10/05 00:01:44;;;;;;;7.03;5.38;;;15.20;99.90;;;;;;4910610;29;20111;-88
2022/10/05 00:04:22;;;;;;;8.73;7.25;;;15.30;99.90;;;;;;4893509;29;20048;-88
2022/10/05 00:07:07;;;;;;;8.07;6.82;;;15.20;99.90;;;;;;4924805;29;20032;-88
2022/10/05 00:09:33;;;;;;;7.15;5.88;;;15.20;99.90;;;;;;4897588;29;20025;-88
2022/10/05 00:12:11;;;;;;;6.65;5.72;;;15.20;99.90;;;;;;4914671;29;20036;-88
2022/10/05 00:14:38;;;;;;;6.25;5.65;;;15.20;99.90;;;;;;4897749;29;20036;-88
2022/10/05 00:17:04;;;;;;;6.63;5.47;;;15.20;99.90;;;;;;4897271;29;20056;-88
2022/10/05 00:19:36;;;;;;;6.82;5.03;;;15.20;99.90;;;;;;4913415;29;20056;-89
2022/10/05 00:22:16;;;;;;;10.10;6.20;;;15.20;99.90;;;;;;4919139;29;20100;-89
2022/10/05 00:24:47;;;;;;;6.80;6.05;;;15.20;99.90;;;;;;4932114;29;20462;-88
2022/10/05 00:27:23;;;;;;;6.35;5.75;;;15.20;99.90;;;;;;4931576;29;20028;-89
2022/10/05 00:29:50;;;;;;;7.20;6.50;;;15.20;99.90;;;;;;4931937;29;20056;-88
2022/10/05 00:32:16;;;;;;;7.50;6.40;;;15.20;99.90;;;;;;4932850;29;20052;-89
2022/10/05 00:34:43;;;;;;;9.35;7.03;;;15.20;99.90;;;;;;4915906;29;20039;-88
2022/10/05 00:37:09;;;;;;;9.60;6.03;;;15.20;99.90;;;;;;4931449;29;20091;-88
2022/10/05 00:39:38;;;;;;;7.82;5.88;;;15.20;99.90;;;;;;4931566;29;20024;-88
2022/10/05 00:42:31;;;;;;;10.65;6.88;;;15.20;99.90;;;;;;4915881;29;20040;-88
2022/10/05 00:45:05;;;;;;;7.15;5.43;;;15.20;99.90;;;;;;4931288;29;20032;-89
2022/10/05 00:47:49;;;;;;;7.35;6.63;;;15.20;99.90;;;;;;4931259;29;20099;-88
2022/10/05 00:50:24;;;;;;;6.70;6.03;;;15.20;99.90;;;;;;4915829;29;20036;-88
2022/10/05 00:53:19;;;;;;;7.47;6.70;;;15.10;99.90;;;;;;4932582;29;20401;-87
2022/10/05 00:56:12;;;;;;;7.72;4.20;;;15.10;99.90;;;;;;4928966;29;20509;-88
2022/10/05 00:59:00;;;;;;;7.40;6.60;;;15.10;99.90;;;;;;4931419;29;20055;-88
2022/10/05 01:01:38;;;;;;;9.57;6.32;;;15.10;99.90;;;;;;4912449;29;20043;-88
2022/10/05 01:04:18;;;;;;;7.50;6.32;;;15.10;99.90;;;;;;4896696;29;20045;-88
2022/10/05 01:06:52;;;;;;;9.25;5.65;;;15.10;99.90;;;;;;4912073;29;20040;-89
2022/10/05 01:09:46;;;;;;;7.45;5.18;;;15.10;99.90;;;;;;4896532;29;20413;-88
2022/10/05 01:12:21;;;;;;;9.00;5.80;;;15.00;99.90;;;;;;4896643;29;20112;-88
2022/10/05 01:15:07;;;;;;;8.32;6.53;;;15.00;99.90;;;;;;4935355;29;20039;-88
2022/10/05 01:17:36;;;;;;;7.68;6.97;;;15.10;99.90;;;;;;4916102;29;20505;-88
2022/10/05 01:20:34;;;;;;;11.25;6.43;;;15.10;99.90;;;;;;4910610;29;20060;-89
2022/10/05 01:23:37;;;;;;;16.02;6.85;;;15.10;99.90;;;;;;4901255;29;20063;-88
2022/10/05 01:26:34;;;;;;;6.18;5.53;;;15.00;99.90;;;;;;4911974;29;20040;-89
2022/10/05 01:29:20;;;;;;;7.40;5.93;;;15.00;99.90;;;;;;4911763;29;20036;-88
2022/10/05 01:31:48;;;;;;;5.15;4.72;;;15.00;99.90;;;;;;4911588;29;20044;-89
2022/10/05 01:34:23;;;;;;;7.28;6.28;;;15.00;99.90;;;;;;4930614;29;20109;-88
2022/10/05 01:36:57;;;;;;;4.60;4.20;;;15.00;99.90;;;;;;4930657;29;20114;-89
2022/10/05 01:39:51;;;;;;;7.07;5.35;;;15.10;99.90;;;;;;4930193;29;20036;-89
2022/10/05 01:42:25;;;;;;;6.85;5.70;;;15.00;99.90;;;;;;4930399;29;20036;-89
2022/10/05 01:45:21;;;;;;;6.50;6.03;;;15.00;99.90;;;;;;4931608;29;20028;-88
2022/10/05 01:48:08;;;;;;;7.00;5.40;;;15.00;99.90;;;;;;4928874;29;20032;-88
2022/10/05 01:51:18;;;;;;;6.22;5.72;;;15.00;99.90;;;;;;4911468;29;20065;-89
2022/10/05 01:54:02;;;;;;;6.45;5.68;;;15.00;99.90;;;;;;4895684;29;20119;-88
2022/10/05 01:56:42;;;;;;;6.20;5.63;;;15.00;99.90;;;;;;4911546;29;20394;-88
2022/10/05 01:59:26;;;;;;;5.10;4.68;;;15.00;99.90;;;;;;4912617;29;20490;-88
2022/10/05 02:01:52;;;;;;;10.98;5.80;;;15.00;99.90;;;;;;4911368;29;20047;-88
2022/10/05 02:04:36;;;;;;;6.60;5.90;;;15.00;99.90;;;;;;4906632;29;20127;-88
2022/10/05 02:07:07;;;;;;;5.70;5.10;;;15.00;99.90;;;;;;4911026;29;20051;-88
2022/10/05 02:09:42;;;;;;;12.63;7.07;;;15.00;99.90;;;;;;4911127;29;20111;-88
2022/10/05 02:12:16;;;;;;;8.60;5.90;;;15.00;99.90;;;;;;4926848;29;20032;-88
2022/10/05 02:14:44;;;;;;;6.53;5.90;;;15.00;99.90;;;;;;4911217;29;20568;-88
2022/10/05 02:17:22;;;;;;;6.25;5.70;;;15.00;99.90;;;;;;4911123;29;20028;-88
2022/10/05 02:19:51;;;;;;;6.35;4.75;;;15.00;99.90;;;;;;4915694;29;20032;-89
2022/10/05 02:22:26;;;;;;;9.35;5.03;;;15.00;99.90;;;;;;4913853;29;20063;-89
2022/10/05 02:25:00;;;;;;;8.88;5.95;;;15.00;99.90;;;;;;4929824;29;20075;-88
2022/10/05 02:27:31;;;;;;;6.22;5.60;;;15.00;99.90;;;;;;4929852;29;20059;-88
2022/10/05 02:30:03;;;;;;;6.13;5.53;;;15.00;99.90;;;;;;4929137;29;20035;-88
2022/10/05 02:32:43;;;;;;;7.15;4.90;;;15.00;99.90;;;;;;4929646;29;20477;-88
2022/10/05 02:35:15;;;;;;;7.22;6.13;;;14.90;99.90;;;;;;4929269;29;20039;-88
2022/10/05 02:38:07;;;;;;;7.32;5.78;;;14.90;99.90;;;;;;4929891;29;20420;-88
2022/10/05 02:40:36;;;;;;;5.60;5.10;;;14.90;99.90;;;;;;4913898;29;20477;-88
2022/10/05 02:43:04;;;;;;;5.53;5.03;;;14.90;99.90;;;;;;4929123;29;20036;-88
2022/10/05 02:45:55;;;;;;;8.55;6.15;;;14.90;99.90;;;;;;4913626;29;20131;-88
2022/10/05 02:48:51;;;;;;;8.15;6.00;;;14.90;99.90;;;;;;4929266;29;20028;-88
2022/10/05 02:51:43;;;;;;;5.80;5.18;;;14.90;99.90;;;;;;4913568;29;20064;-88
2022/10/05 02:54:22;;;;;;;8.05;4.97;;;14.90;99.90;;;;;;4912585;29;20123;-89
2022/10/05 02:57:15;;;;;;;7.00;5.20;;;14.90;99.90;;;;;;4929130;29;20064;-88
2022/10/05 03:00:13;;;;;;;5.45;4.95;;;14.90;99.90;;;;;;4929364;29;20048;-88
2022/10/05 03:02:42;;;;;;;5.95;5.43;;;14.90;99.90;;;;;;4913286;29;20036;-88
2022/10/05 03:05:24;;;;;;;16.05;5.57;;;14.90;99.90;;;;;;4913335;29;20051;-88
2022/10/05 03:08:16;;;;;;;6.43;5.50;;;14.90;99.90;;;;;;4910071;29;20092;-88
2022/10/05 03:11:03;;;;;;;6.78;6.10;;;14.90;99.90;;;;;;4925709;29;20028;-88
2022/10/05 03:14:07;;;;;;;14.85;7.75;;;14.90;99.90;;;;;;4894591;29;20040;-88
2022/10/05 03:17:01;;;;;;;7.15;6.50;;;14.90;99.90;;;;;;4900758;29;20045;-88
2022/10/05 03:19:59;;;;;;;9.55;6.63;;;14.90;99.90;;;;;;4894216;29;20039;-88
2022/10/05 03:22:46;;;;;;;6.20;5.60;;;14.90;99.90;;;;;;4912640;29;20028;-88
2022/10/05 03:25:30;;;;;;;6.10;5.50;;;14.90;99.90;;;;;;4928941;29;20410;-89
2022/10/05 03:28:05;;;;;;;6.43;5.80;;;14.90;99.90;;;;;;4928786;29;20032;-88
2022/10/05 03:30:41;;;;;;;6.45;5.80;;;14.90;99.90;;;;;;4928481;29;20060;-88
2022/10/05 03:33:50;;;;;;;6.95;6.25;;;14.90;99.90;;;;;;4928668;29;20052;-88
2022/10/05 03:36:34;;;;;;;7.63;5.82;;;14.80;99.90;;;;;;4908541;29;20040;-88
2022/10/05 03:39:25;;;;;;;6.95;6.25;;;14.80;99.90;;;;;;4924092;29;20064;-89
2022/10/05 03:42:29;;;;;;;6.97;5.97;;;14.80;99.90;;;;;;4902355;29;20053;-89
2022/10/05 03:45:17;;;;;;;9.13;4.70;;;14.80;99.90;;;;;;4893934;29;20055;-89
2022/10/05 03:48:05;;;;;;;6.90;5.82;;;14.80;99.90;;;;;;4893900;29;20032;-88
2022/10/05 03:50:54;;;;;;;7.97;6.60;;;14.80;99.90;;;;;;4909503;29;20057;-88
2022/10/05 03:53:29;;;;;;;6.45;5.85;;;14.70;99.90;;;;;;4909943;29;20056;-88
2022/10/05 03:56:14;;;;;;;6.43;5.78;;;14.80;99.90;;;;;;4909248;29;20053;-88
2022/10/05 03:58:48;;;;;;;7.00;5.57;;;14.70;99.90;;;;;;4909280;29;20033;-88
2022/10/05 04:01:20;;;;;;;6.88;6.22;;;14.70;99.90;;;;;;4893805;29;20033;-87
2022/10/05 04:03:57;;;;;;;6.50;5.90;;;14.70;99.90;;;;;;4909012;29;20081;-88
2022/10/05 04:06:26;;;;;;;7.43;6.72;;;14.70;99.90;;;;;;4914508;29;20020;-88
2022/10/05 04:09:00;;;;;;;7.07;6.57;;;14.70;99.90;;;;;;4912095;29;20043;-88
2022/10/05 04:11:38;;;;;;;6.35;5.55;;;14.70;99.90;;;;;;4908981;29;20053;-88
2022/10/05 04:14:11;;;;;;;8.65;6.82;;;14.60;99.90;;;;;;4909294;29;20025;-88
2022/10/05 04:16:52;;;;;;;6.68;6.03;;;14.70;99.90;;;;;;4909194;29;20052;-88
2022/10/05 04:19:31;;;;;;;7.30;5.82;;;14.70;99.90;;;;;;4909409;29;20028;-88
2022/10/05 04:22:09;;;;;;;6.90;5.20;;;14.70;99.90;;;;;;4909116;29;20494;-88
2022/10/05 04:24:45;;;;;;;7.50;6.70;;;14.70;99.90;;;;;;4909343;29;20032;-88
2022/10/05 04:27:29;;;;;;;5.45;4.95;;;14.60;99.90;;;;;;4909112;29;20092;-88
2022/10/05 04:30:06;;;;;;;5.70;5.20;;;14.60;99.90;;;;;;4909006;29;20044;-88
2022/10/05 04:32:53;;;;;;;7.13;5.93;;;14.60;99.90;;;;;;4909252;29;20065;-88
2022/10/05 04:35:27;;;;;;;6.07;5.28;;;14.60;99.90;;;;;;4878782;29;20041;-88
2022/10/05 04:38:25;;;;;;;5.63;5.07;;;14.60;99.90;;;;;;4893372;29;20486;-88
2022/10/05 04:41:03;;;;;;;7.18;4.88;;;14.60;99.90;;;;;;4921682;29;20032;-89
2022/10/05 04:43:54;;;;;;;8.75;7.25;;;14.60;99.90;;;;;;4908720;29;20025;-87
2022/10/05 04:46:50;;;;;;;6.30;5.25;;;14.70;99.90;;;;;;4905949;29;20028;-86
2022/10/05 04:49:28;;;;;;;6.45;5.05;;;14.60;99.90;;;;;;4924380;29;20032;-88
2022/10/05 04:52:32;;;;;;;5.95;5.30;;;14.60;99.90;;;;;;4926304;29;20028;-88
2022/10/05 04:55:35;;;;;;;5.68;3.83;;;14.60;99.90;;;;;;4927435;29;20046;-88
2022/10/05 04:58:25;;;;;;;3.97;3.67;;;14.60;99.90;;;;;;4925744;29;20032;-87
2022/10/05 05:00:57;;;;;;;5.45;4.93;;;14.60;99.90;;;;;;4914436;29;20112;-88
2022/10/05 05:03:47;;;;;;;6.35;5.38;;;14.60;99.90;;;;;;4929472;29;20058;-88
2022/10/05 05:06:46;;;;;;;12.95;5.53;;;14.60;99.90;;;;;;4930566;29;20040;-88
2022/10/05 05:09:12;;;;;;;5.35;4.90;;;14.60;99.90;;;;;;4927877;29;20115;-88
2022/10/05 05:11:53;;;;;;;5.88;4.75;;;14.60;99.90;;;;;;4910503;29;20037;-88
2022/10/05 05:14:31;;;;;;;4.97;4.47;;;14.60;99.90;;;;;;4928590;29;20031;-89
2022/10/05 05:17:20;;;;;;;5.78;5.28;;;14.60;99.90;;;;;;4910228;29;20032;-88
2022/10/05 05:20:17;;;;;;;5.10;4.70;;;14.60;99.90;;;;;;4912047;29;20024;-88
2022/10/05 05:23:17;;;;;;;6.10;4.90;;;14.50;99.90;;;;;;4918486;29;20122;-88
2022/10/05 05:26:06;;;;;;;6.95;5.78;;;14.50;99.90;;;;;;4922916;29;20483;-88
2022/10/05 05:28:44;;;;;;;5.63;4.93;;;14.50;99.90;;;;;;4917778;29;20040;-88
2022/10/05 05:31:16;;;;;;;4.55;4.15;;;14.50;99.90;;;;;;4923915;29;20028;-87
2022/10/05 05:33:51;;;;;;;6.40;5.30;;;14.50;99.90;;;;;;4926716;29;20039;-88
2022/10/05 05:36:44;;;;;;;4.68;4.30;;;14.50;99.90;;;;;;4912536;29;20032;-88
2022/10/05 05:39:58;;;;;;;3.92;3.58;;;14.50;99.90;;;;;;4930396;29;20066;-88
2022/10/05 05:42:59;;;;;;;6.15;3.95;;;14.40;99.90;;;;;;4924054;29;20048;-88
2022/10/05 05:45:45;;;;;;;6.18;4.47;;;14.50;99.90;;;;;;4906209;29;20048;-88
2022/10/05 05:48:40;;;;;;;4.93;4.53;;;14.40;99.90;;;;;;4920257;29;20028;-88
2022/10/05 05:51:17;;;;;;;5.65;3.45;;;14.50;99.90;;;;;;4905399;29;20040;-88
2022/10/05 05:53:56;;;;;;;8.50;4.43;;;14.50;99.90;;;;;;4895929;29;20092;-88
2022/10/05 05:56:39;;;;;;;5.13;3.95;;;14.50;99.90;;;;;;4926728;29;20505;-88
2022/10/05 05:59:27;;;;;;;6.35;4.35;;;14.40;99.90;;;;;;4928039;29;20394;-89
2022/10/05 06:02:08;;;;;;;3.88;3.55;;;14.40;99.90;;;;;;4912440;29;20039;-87
2022/10/05 06:04:40;;;;;;;5.63;4.25;;;14.50;99.90;;;;;;4904561;29;20109;-87
2022/10/05 06:07:14;;;;;;;4.28;3.97;;;14.50;99.90;;;;;;4913229;29;20056;-87
2022/10/05 06:09:53;;;;;;;5.97;4.35;;;14.40;99.90;;;;;;4927506;29;20024;-87
2022/10/05 06:12:40;;;;;;;3.45;3.15;;;14.40;99.90;;;;;;4924849;29;20040;-87
2022/10/05 06:15:39;;;;;;;8.00;5.13;;;14.50;99.90;;;;;;4924735;29;20033;-87
2022/10/05 06:18:10;;;;;;;;;;;14.50;99.90;;;;;;4929842;29;20115;-87
2022/10/05 06:20:43;;;;;;;4.78;4.32;;;14.50;99.90;;;;;;4929926;29;19918;-87
2022/10/05 06:23:22;;;;;;;4.30;4.00;;;14.50;99.90;;;;;;4930170;29;20047;-87
2022/10/05 06:26:08;;;;;;;4.00;3.00;;;14.50;99.90;;;;;;4922933;29;20080;-87
2022/10/05 06:28:34;;;;;;;4.63;4.15;;;14.50;99.90;;;;;;4928758;29;20032;-88
2022/10/05 06:31:28;;;;;;;6.35;4.35;;;14.50;99.90;;;;;;4913847;29;20042;-87
2022/10/05 06:34:18;;;;;;;3.58;3.28;;;14.50;99.90;;;;;;4929452;29;20035;-87
2022/10/05 06:37:00;;;;;;;4.57;4.13;;;14.50;99.90;;;;;;4922568;29;20025;-87
2022/10/05 06:39:52;;;;;;;7.45;4.22;;;14.50;99.90;;;;;;4926348;29;20028;-87
2022/10/05 06:42:24;;;;;;;9.38;3.90;;;14.50;99.90;;;;;;4913634;29;20032;-88
2022/10/05 06:45:47;;;;;;;6.82;4.28;;;14.50;99.90;;;;;;4909683;29;20032;-87
2022/10/05 06:48:51;;;;;;;4.30;3.90;;;14.50;99.90;;;;;;4910692;29;20095;-87
2022/10/05 06:52:01;;;;;;;4.13;3.72;;;14.50;99.90;;;;;;4900617;29;20040;-87
2022/10/05 06:54:51;;;;;;;6.93;3.58;;;14.50;99.90;;;;;;4910625;29;20032;-87
2022/10/05 06:58:08;;;;;;;4.32;3.47;;;14.50;99.90;;;;;;4910061;29;20111;-87
2022/10/05 07:00:48;;;;;;;4.07;3.50;;;14.50;99.90;;;;;;4903380;29;20041;-87
2022/10/05 07:03:39;;;;;;;3.88;3.45;;;14.50;99.90;;;;;;4917636;29;20036;-87
2022/10/05 07:06:12;;;;;;;3.95;3.47;;;14.50;99.90;;;;;;4913960;29;20027;-87
2022/10/05 07:09:13;;;;;;;5.13;3.58;;;14.50;99.90;;;;;;4928729;29;20032;-87
2022/10/05 07:11:51;;;;;;;4.15;3.75;;;14.50;99.90;;;;;;4928696;29;20034;-88
2022/10/05 07:14:38;;;;;;;4.45;4.07;;;14.60;99.90;;;;;;4928080;29;20047;-88
2022/10/05 07:17:22;;;;;;;5.90;4.65;;;14.60;99.90;;;;;;4944367;29;20020;-87
2022/10/05 07:19:54;;;;;;;4.45;4.00;;;14.60;99.90;;;;;;4928601;29;20130;-87
2022/10/05 07:23:05;;;;;;;4.20;3.75;;;14.60;99.90;;;;;;4943942;29;20047;-86
2022/10/05 07:25:57;;;;;;;5.90;4.05;;;14.60;99.90;;;;;;4922050;29;20040;-89
2022/10/05 07:28:51;;;;;;;6.57;3.75;;;14.60;99.90;;;;;;4910896;29;20052;-89
2022/10/05 07:31:28;;;;;;;5.68;4.15;;;14.60;99.90;;;;;;4944029;29;20068;-88
2022/10/05 07:34:30;;;;;;;5.35;3.80;;;14.60;99.90;;;;;;4927956;29;20028;-89
2022/10/05 07:40:06;;;;;;;3.45;3.22;;;14.70;99.90;;;;;;4923308;29;20096;-89
2022/10/05 07:42:47;;;;;;;5.13;3.45;;;14.70;99.90;;;;;;4926827;29;20032;-89
2022/10/05 07:45:13;;;;;;;4.75;4.30;;;14.70;99.90;;;;;;4925109;29;20057;-88
2022/10/05 07:47:50;;;;;;;3.90;3.20;;;14.70;99.90;;;;;;4934017;29;20032;-89
2022/10/05 07:50:21;;;;;;;3.80;3.10;;;14.70;99.90;;;;;;4943982;29;20028;-88
2022/10/05 07:53:03;;;;;;;6.30;3.67;;;14.70;99.90;;;;;;4914581;29;20039;-89
2022/10/05 07:55:37;;;;;;;3.85;3.55;;;14.70;99.90;;;;;;4909594;29;20044;-89
2022/10/05 07:58:30;;;;;;;3.85;3.45;;;14.70;99.90;;;;;;4904369;29;20045;-89
2022/10/05 08:01:10;;;;;;;4.47;3.65;;;14.80;99.90;;;;;;4912176;29;20042;-89
2022/10/05 08:03:52;;;;;;;3.85;3.50;;;14.80;99.90;;;;;;4943644;29;20505;-89
2022/10/05 08:06:29;;;;;;;;;;;14.80;99.90;;;;;;4943672;29;20043;-89
2022/10/05 08:09:05;;;;;;;5.10;3.38;;;14.80;99.90;;;;;;4910472;29;19918;-89
2022/10/05 08:11:50;;;;;;;4.15;3.80;;;14.80;99.90;;;;;;4929133;29;20492;-88
2022/10/05 08:14:33;;;;;;;4.35;4.03;;;14.90;99.90;;;;;;4943598;29;20039;-89
2022/10/05 08:17:06;;;;;;;5.32;3.47;;;14.90;99.90;;;;;;4929472;29;20048;-90
2022/10/05 08:20:03;;;;;;;5.57;3.40;;;14.90;99.90;;;;;;4928942;29;20047;-88
2022/10/05 08:22:38;;;;;;;4.32;3.92;;;14.90;99.90;;;;;;4908916;29;20402;-88
2022/10/05 08:25:10;;;;;;;3.75;3.35;;;14.90;99.90;;;;;;4931219;29;20029;-89
2022/10/05 08:28:11;;;;;;;8.98;3.92;;;14.90;99.90;;;;;;4906547;29;20028;-89
2022/10/05 08:30:53;;;;;;;7.45;4.53;;;14.90;99.90;;;;;;4924260;29;20129;-89
2022/10/05 08:33:22;;;;;;;4.90;3.53;;;15.00;99.90;;;;;;4912818;29;20043;-89
2022/10/05 08:36:05;;;;;;;3.92;3.55;;;15.00;99.90;;;;;;4919558;29;20039;-90
2022/10/05 08:38:34;;;;;;;13.40;3.25;;;15.00;99.90;;;;;;4943960;29;20028;-88
2022/10/05 08:41:06;;;;;;;4.07;3.55;;;15.00;99.90;;;;;;4907815;29;20056;-89
2022/10/05 08:43:59;;;;;;;5.78;2.83;;;15.00;99.90;;;;;;4919932;29;20028;-89
2022/10/05 08:46:31;;;;;;;3.33;2.97;;;15.00;99.90;;;;;;4931072;29;20032;-88
2022/10/05 08:49:03;;;;;;;3.20;2.97;;;15.10;99.90;;;;;;4946665;29;20497;-88
2022/10/05 08:51:48;;;;;;;6.30;2.85;;;15.10;99.90;;;;;;4929568;29;20068;-87
2022/10/05 08:54:25;;;;;;;6.57;3.35;;;15.10;99.90;;;;;;4912389;29;20036;-88
2022/10/05 08:57:16;;;;;;;12.65;2.88;;;15.10;99.90;;;;;;4927954;29;20085;-89
2022/10/05 09:00:18;;;;;;;4.20;3.60;;;15.20;99.90;;;;;;4926865;29;20024;-91
2022/10/05 09:03:11;;;;;;;3.47;3.22;;;15.20;99.90;;;;;;4931265;29;20414;-89
2022/10/05 09:06:15;;;;;;;2.67;2.47;;;15.20;99.90;;;;;;4931378;29;20123;-90
2022/10/05 09:09:09;;;;;;;3.17;2.97;;;15.20;99.90;;;;;;4919377;29;20056;-89
2022/10/05 09:11:56;;;;;;;7.18;3.42;;;15.20;99.90;;;;;;4912464;29;20063;-90
2022/10/05 09:14:37;;;;;;;3.00;2.60;;;15.20;99.90;;;;;;4929926;29;20055;-90
2022/10/05 09:17:28;;;;;;;5.00;3.35;;;15.20;99.90;;;;;;4946461;29;20405;-89
2022/10/05 09:20:22;;;;;;;12.00;3.67;;;15.30;99.90;;;;;;4912060;29;20033;-89
2022/10/05 09:23:07;;;;;;;6.32;1.70;;;15.30;99.90;;;;;;4917229;29;20028;-88
2022/10/05 09:25:57;;;;;;;4.38;3.00;;;15.30;99.90;;;;;;4930928;29;20060;-90
2022/10/05 09:28:29;;;;;;;5.53;2.15;;;15.30;99.90;;;;;;4930513;29;20115;-89
2022/10/05 09:31:10;;;;;;;3.58;2.97;;;15.30;99.90;;;;;;4924285;29;20430;-89
2022/10/05 09:33:50;;;;;;;5.38;2.35;;;15.40;99.90;;;;;;4913049;29;20043;-89
2022/10/05 09:36:41;;;;;;;2.90;2.70;;;15.40;99.90;;;;;;4942607;29;20095;-90
2022/10/05 09:39:41;;;;;;;3.15;2.88;;;15.40;99.90;;;;;;4929334;29;20028;-90
2022/10/05 09:42:13;;;;;;;3.47;2.65;;;15.50;99.90;;;;;;4890552;29;20044;-90
2022/10/05 09:45:16;;;;;;;5.68;3.15;;;15.50;99.90;;;;;;4920639;29;20037;-89
2022/10/05 09:48:12;;;;;;;2.28;2.10;;;15.50;99.90;;;;;;4914957;29;20086;-90
2022/10/05 09:50:50;;;;;;;3.08;2.78;;;15.50;99.90;;;;;;4914751;29;20438;-89
2022/10/05 09:53:39;;;;;;;2.92;2.72;;;15.60;99.90;;;;;;4925998;29;20032;-89
2022/10/05 09:56:27;;;;;;;2.38;2.17;;;15.60;99.90;;;;;;4925244;29;20044;-88
2022/10/05 09:59:36;;;;;;;2.05;1.92;;;15.60;99.90;;;;;;4929830;29;20036;-89
2022/10/05 10:02:40;;;;;;;3.03;2.75;;;15.60;99.90;;;;;;4929947;29;20068;-89
2022/10/05 10:05:30;;;;;;;2.35;2.22;;;15.70;99.90;;;;;;4914055;29;20103;-89
2022/10/05 10:08:05;;;;;;;3.47;2.97;;;15.70;99.90;;;;;;4914438;29;20111;-89
2022/10/05 10:10:52;;;;;;;2.78;1.98;;;15.70;99.90;;;;;;4923728;29;20056;-90
2022/10/05 10:13:59;;;;;;;2.67;2.25;;;15.80;99.90;;;;;;4921132;29;20063;-90
2022/10/05 10:16:45;;;;;;;2.65;2.15;;;15.80;99.90;;;;;;4939281;29;20040;-89
2022/10/05 10:19:35;;;;;;;3.17;2.95;;;15.80;99.90;;;;;;4912306;29;20096;-90
2022/10/05 10:22:04;;;;;;;;;;;15.90;99.90;;;;;;4911502;29;20067;-89
2022/10/05 10:24:38;;;;;;;6.90;2.17;;;15.90;99.90;;;;;;4911147;29;19907;-89
2022/10/05 10:27:52;;;;;;;2.38;2.03;;;15.90;99.90;;;;;;4915611;29;20059;-90
2022/10/05 10:30:42;;;;;;;1.60;1.50;;;16.00;99.90;;;;;;4929527;29;20086;-90
2022/10/05 10:33:33;;;;;;;1.90;1.73;;;16.00;99.90;;;;;;4911843;29;20025;-89
2022/10/05 10:36:27;;;;;;;4.60;2.78;;;16.10;99.90;;;;;;4922552;29;20061;-90
2022/10/05 10:39:01;;;;;;;2.20;2.00;;;16.10;99.90;;;;;;4912099;29;20032;-89
2022/10/05 10:41:48;;;;;;;4.13;3.15;;;16.20;99.90;;;;;;4919207;29;20032;-90
2022/10/05 10:44:29;;;;;;;3.25;2.08;;;16.30;99.90;;;;;;4929001;29;20036;-89
2022/10/05 10:47:07;;;;;;;5.00;1.95;;;16.30;99.90;;;;;;4935051;29;20035;-90
2022/10/05 10:49:51;;;;;;;4.85;2.17;;;16.30;99.90;;;;;;4919711;29;20035;-89
2022/10/05 10:52:47;;;;;;;5.22;3.35;;;16.40;99.90;;;;;;4922252;29;20036;-91
2022/10/05 10:55:28;;;;;;;3.90;1.70;;;16.40;99.90;;;;;;4930779;29;20032;-90
2022/10/05 10:58:15;;;;;;;2.58;2.38;;;16.40;99.90;;;;;;4929343;29;20036;-90
2022/10/05 11:01:14;;;;;;;2.30;2.08;;;16.50;99.90;;;;;;4929430;29;20042;-89
2022/10/05 11:04:04;;;;;;;2.25;1.90;;;16.60;99.90;;;;;;4929130;29;20080;-89
2022/10/05 11:06:48;;;;;;;2.50;1.92;;;16.60;99.90;;;;;;4929430;29;20024;-89
2022/10/05 11:09:38;;;;;;;1.95;1.85;;;16.60;99.90;;;;;;4930274;29;20036;-89
2022/10/05 11:12:16;;;;;;;3.25;2.90;;;16.70;99.90;;;;;;4929477;29;20043;-90
2022/10/05 11:15:26;;;;;;;2.42;2.22;;;16.70;99.90;;;;;;4930306;29;20040;-90
2022/10/05 11:17:55;;;;;;;2.05;1.95;;;16.80;99.90;;;;;;4896278;29;20052;-89
2022/10/05 11:20:58;;;;;;;4.97;1.85;;;16.70;99.90;;;;;;4928372;29;20035;-89
2022/10/05 11:23:55;;;;;;;3.08;2.10;;;16.80;99.90;;;;;;4930733;29;20036;-88
2022/10/05 11:26:51;;;;;;;4.93;2.38;;;16.80;99.90;;;;;;4928877;29;20036;-89
2022/10/05 11:29:29;;;;;;;2.40;2.20;;;16.80;99.90;;;;;;4929084;29;20024;-90
2022/10/05 11:32:00;;;;;;;1.73;1.63;;;16.80;99.90;;;;;;4928934;29;20032;-89
2022/10/05 11:34:48;;;;;;;2.90;2.60;;;16.90;99.90;;;;;;4929947;29;20065;-88
2022/10/05 11:37:42;;;;;;;5.00;2.22;;;17.10;99.90;;;;;;4927427;29;20035;-89
2022/10/05 11:40:19;;;;;;;1.90;1.65;;;17.10;99.90;;;;;;4912918;29;20028;-88
2022/10/05 11:42:54;;;;;;;4.68;1.90;;;17.10;99.90;;;;;;4928400;29;20036;-89
2022/10/05 11:45:55;;;;;;;5.05;2.10;;;17.10;99.90;;;;;;4929744;29;20028;-89
2022/10/05 11:48:36;;;;;;;2.25;1.98;;;17.10;99.90;;;;;;4893233;29;20028;-89
2022/10/05 11:51:20;;;;;;;1.63;1.52;;;17.20;99.90;;;;;;4908184;29;20442;-89
2022/10/05 11:54:01;;;;;;;2.45;1.35;;;17.20;99.90;;;;;;4928291;29;20040;-88
2022/10/05 11:56:40;;;;;;;1.75;1.63;;;17.20;99.90;;;;;;4929694;29;20032;-88
2022/10/05 12:00:01;;;;;;;1.58;1.52;;;17.30;99.90;;;;;;4927637;29;20060;-88
2022/10/05 12:02:53;;;;;;;1.50;1.38;;;17.50;99.90;;;;;;4902319;29;20398;-89
2022/10/05 12:05:28;;;;;;;1.52;1.40;;;17.50;99.90;;;;;;4910668;29;20052;-89
2022/10/05 12:08:12;;;;;;;1.55;1.42;;;17.60;99.90;;;;;;4893893;29;20393;-89
2022/10/05 12:10:50;;;;;;;1.35;1.25;;;17.70;99.90;;;;;;4909509;29;20036;-89
2022/10/05 12:13:49;;;;;;;1.58;1.48;;;17.70;99.90;;;;;;4914963;29;20035;-89
2022/10/05 12:16:38;;;;;;;3.03;1.00;;;17.80;99.90;;;;;;4928394;29;20042;-89
2022/10/05 12:19:07;;;;;;;1.77;0.90;;;17.90;99.90;;;;;;4929403;29;20132;-89
2022/10/05 12:21:36;;;;;;;4.07;1.23;;;17.90;99.90;;;;;;4928260;29;20082;-88
2022/10/05 12:24:08;;;;;;;1.73;1.63;;;17.90;99.90;;;;;;4912401;29;20036;-89
2022/10/05 12:26:41;;;;;;;2.00;1.45;;;18.00;99.90;;;;;;4928346;29;20572;-89
2022/10/05 12:29:21;;;;;;;2.63;1.75;;;18.00;99.90;;;;;;4915268;29;20028;-89
2022/10/05 12:31:59;;;;;;;3.05;1.45;;;18.00;99.90;;;;;;4910591;29;20107;-89
2022/10/05 12:34:42;;;;;;;1.63;1.52;;;17.90;99.90;;;;;;4909294;29;20036;-89
2022/10/05 12:37:45;;;;;;;2.10;1.45;;;18.00;99.90;;;;;;4909409;29;20039;-90
2022/10/05 12:40:23;;;;;;;3.47;1.88;;;17.90;99.90;;;;;;4909292;29;20033;-89
2022/10/05 12:43:09;;;;;;;1.60;1.50;;;18.00;99.90;;;;;;4912863;29;20060;-88
2022/10/05 12:45:52;;;;;;;2.65;1.27;;;18.00;99.90;;;;;;4908463;29;20044;-87
2022/10/05 12:48:32;;;;;;;1.50;1.40;;;18.00;99.90;;;;;;4909139;29;20039;-90
2022/10/05 12:51:06;;;;;;;2.05;1.77;;;18.00;99.90;;;;;;4909352;29;20028;-89
2022/10/05 12:53:39;;;;;;;3.83;2.10;;;18.00;99.90;;;;;;4909259;29;20040;-89
2022/10/05 12:56:28;;;;;;;1.77;1.67;;;18.00;99.90;;;;;;4909291;29;20465;-89
2022/10/05 12:59:18;;;;;;;3.50;2.15;;;18.00;99.90;;;;;;4909206;29;20032;-89
2022/10/05 13:01:47;;;;;;;;;;;18.10;99.90;;;;;;4910673;29;20060;-90
2022/10/05 13:04:23;;;;;;;2.30;1.83;;;18.00;99.90;;;;;;4908694;29;19923;-88
2022/10/05 13:07:07;;;;;;;5.72;2.97;;;18.10;99.90;;;;;;4908887;29;20033;-89
2022/10/05 13:09:39;;;;;;;1.42;1.33;;;18.10;99.90;;;;;;4909963;29;20071;-89
2022/10/05 13:12:16;;;;;;;2.42;1.65;;;18.10;99.90;;;;;;4893400;29;20036;-89
2022/10/05 13:14:52;;;;;;;2.67;1.85;;;18.00;99.90;;;;;;4911441;29;20164;-89
2022/10/05 13:17:32;;;;;;;3.20;2.10;;;18.00;99.90;;;;;;4911973;29;20040;-90
2022/10/05 13:20:11;;;;;;;5.60;1.65;;;18.10;99.90;;;;;;4923521;29;20029;-89
2022/10/05 13:22:51;;;;;;;6.22;1.92;;;18.20;99.90;;;;;;4913295;29;20037;-89
2022/10/05 13:25:43;;;;;;;1.73;1.55;;;18.10;99.90;;;;;;4930801;29;20056;-89
2022/10/05 13:28:43;;;;;;;6.38;2.47;;;18.20;99.90;;;;;;4921896;29;20099;-89
2022/10/05 13:31:25;;;;;;;2.97;1.42;;;18.30;99.90;;;;;;4910388;29;20100;-90
2022/10/05 13:34:00;;;;;;;2.97;1.30;;;18.40;99.90;;;;;;4913341;29;20043;-87
2022/10/05 13:36:55;;;;;;;8.00;2.05;;;18.40;99.90;;;;;;4914536;29;20039;-89
2022/10/05 13:39:39;;;;;;;1.23;1.13;;;18.40;99.90;;;;;;4903891;29;20040;-88
2022/10/05 13:42:14;;;;;;;1.67;1.58;;;18.40;99.90;;;;;;4913101;29;20032;-89
2022/10/05 13:45:02;;;;;;;2.58;1.30;;;18.40;99.90;;;;;;4924745;29;20055;-89
2022/10/05 13:47:30;;;;;;;2.40;1.23;;;18.40;99.90;;;;;;4911740;29;20036;-91
2022/10/05 13:50:06;;;;;;;5.10;1.83;;;18.50;99.90;;;;;;4915870;29;20024;-89
2022/10/05 13:52:52;;;;;;;2.67;1.17;;;18.50;99.90;;;;;;4924707;29;20542;-89
2022/10/05 13:55:39;;;;;;;4.75;1.67;;;18.50;99.90;;;;;;4925471;29;20036;-89
2022/10/05 13:58:50;;;;;;;3.20;1.10;;;18.50;99.90;;;;;;4913720;29;20036;-88
2022/10/05 14:01:21;;;;;;;2.22;2.03;;;18.40;99.90;;;;;;4901055;29;20100;-88
2022/10/05 14:04:12;;;;;;;1.98;1.45;;;18.40;99.90;;;;;;4901015;29;20104;-87
2022/10/05 14:06:39;;;;;;;2.67;1.98;;;18.50;99.90;;;;;;4911145;29;20032;-87
2022/10/05 14:09:19;;;;;;;3.85;2.10;;;18.40;99.90;;;;;;4929712;29;20020;-87
2022/10/05 14:11:49;;;;;;;;;;;18.40;99.90;;;;;;4914002;29;20029;-88
2022/10/05 14:15:04;;;;;;;10.93;1.75;;;18.40;99.90;;;;;;4930045;29;19918;-87
2022/10/05 14:17:37;;;;;;;1.92;1.80;;;18.40;99.90;;;;;;4905444;29;20036;-88